createdAt,value
2022-11-23T00:00:24.525Z,2.36
2022-11-23T00:01:24.506Z,2.38
2022-11-23T00:02:24.599Z,2.36
2022-11-23T00:03:24.486Z,2.38
2022-11-23T00:04:24.466Z,2.42
2022-11-23T00:05:24.455Z,2.42
2022-11-23T00:06:24.453Z,2.42
2022-11-23T00:07:24.469Z,2.36
2022-11-23T00:08:24.541Z,2.39
2022-11-23T00:09:24.412Z,2.35
2022-11-23T00:10:24.399Z,2.32
2022-11-23T00:11:24.388Z,2.28
2022-11-23T00:12:24.367Z,2.26
2022-11-23T00:13:24.367Z,2.25
2022-11-23T00:14:24.352Z,2.24
2022-11-23T00:15:24.330Z,2.18
2022-11-23T00:16:24.324Z,2.20
2022-11-23T00:17:24.303Z,2.17
2022-11-23T00:18:24.296Z,2.11
2022-11-23T00:19:24.287Z,2.11
2022-11-23T00:20:24.274Z,2.10
2022-11-23T00:21:24.261Z,2.13
2022-11-23T00:22:24.250Z,2.14
2022-11-23T00:23:24.233Z,2.15
2022-11-23T00:24:24.240Z,2.15
2022-11-23T00:25:24.203Z,2.15
2022-11-23T00:26:24.192Z,2.14
2022-11-23T00:27:24.178Z,2.17
2022-11-23T00:28:24.179Z,2.20
2022-11-23T00:29:24.159Z,2.22
2022-11-23T00:30:24.145Z,2.22
2022-11-23T00:31:24.127Z,2.25
2022-11-23T00:32:24.120Z,2.25
2022-11-23T00:33:24.109Z,2.22
2022-11-23T00:34:24.093Z,2.18
2022-11-23T00:35:24.078Z,2.15
2022-11-23T00:36:24.073Z,2.13
2022-11-23T00:37:24.058Z,2.11
2022-11-23T00:38:24.040Z,2.10
2022-11-23T00:39:24.034Z,2.08
2022-11-23T00:40:24.042Z,2.08
2022-11-23T00:41:24.012Z,2.06
2022-11-23T00:42:23.998Z,2.06
2022-11-23T00:43:23.982Z,2.06
2022-11-23T00:44:23.973Z,2.06
2022-11-23T00:45:23.974Z,2.06
2022-11-23T00:46:23.955Z,2.07
2022-11-23T00:47:23.938Z,2.04
2022-11-23T00:48:23.924Z,2.02
2022-11-23T00:49:23.903Z,1.97
2022-11-23T00:50:23.901Z,1.95
2022-11-23T00:51:23.884Z,1.95
2022-11-23T00:52:23.863Z,1.88
2022-11-23T00:53:23.858Z,1.87
2022-11-23T00:54:23.845Z,1.87
2022-11-23T00:55:23.831Z,1.77
2022-11-23T00:56:23.862Z,1.76
2022-11-23T00:57:23.810Z,1.77
2022-11-23T00:58:23.804Z,1.76
2022-11-23T00:59:23.785Z,1.76
2022-11-23T01:00:23.781Z,1.73
2022-11-23T01:01:23.810Z,1.74
2022-11-23T01:02:23.741Z,1.76
2022-11-23T01:03:23.730Z,1.77
2022-11-23T01:04:23.720Z,1.74
2022-11-23T01:05:23.703Z,1.76
2022-11-23T01:06:23.702Z,1.74
2022-11-23T01:07:23.706Z,1.70
2022-11-23T01:08:23.670Z,1.68
2022-11-23T01:09:23.653Z,1.68
2022-11-23T01:10:23.652Z,1.68
2022-11-23T01:11:23.635Z,1.70
2022-11-23T01:12:23.645Z,1.68
2022-11-23T01:13:23.613Z,1.66
2022-11-23T01:14:23.597Z,1.60
2022-11-23T01:15:23.579Z,1.56
2022-11-23T01:16:24.549Z,1.52
2022-11-23T01:17:23.563Z,1.52
2022-11-23T01:18:23.545Z,1.55
2022-11-23T01:19:23.540Z,1.53
2022-11-23T01:20:23.524Z,1.53
2022-11-23T01:21:23.503Z,1.49
2022-11-23T01:22:23.495Z,1.48
2022-11-23T01:23:23.494Z,1.42
2022-11-23T01:24:23.475Z,1.41
2022-11-23T01:25:23.467Z,1.38
2022-11-23T01:26:23.465Z,1.40
2022-11-23T01:27:23.436Z,1.41
2022-11-23T01:28:23.444Z,1.40
2022-11-23T01:29:23.413Z,1.37
2022-11-23T01:30:23.401Z,1.34
2022-11-23T01:31:23.378Z,1.31
2022-11-23T01:32:23.376Z,1.24
2022-11-23T01:33:23.357Z,1.22
2022-11-23T01:34:23.344Z,1.20
2022-11-23T01:35:23.331Z,1.22
2022-11-23T01:36:23.320Z,1.20
2022-11-23T01:37:23.309Z,1.23
2022-11-23T01:38:23.299Z,1.26
2022-11-23T01:39:23.289Z,1.28
2022-11-23T01:40:23.271Z,1.30
2022-11-23T01:41:23.251Z,1.30
2022-11-23T01:42:23.239Z,1.24
2022-11-23T01:43:23.236Z,1.24
2022-11-23T01:44:23.244Z,1.22
2022-11-23T01:45:23.202Z,1.19
2022-11-23T01:46:23.197Z,1.17
2022-11-23T01:47:23.182Z,1.14
2022-11-23T01:48:23.169Z,1.12
2022-11-23T01:49:23.155Z,1.12
2022-11-23T01:50:23.140Z,1.12
2022-11-23T01:51:23.120Z,1.10
2022-11-23T01:52:23.116Z,1.10
2022-11-23T01:53:23.094Z,1.10
2022-11-23T01:54:23.095Z,1.14
2022-11-23T01:55:23.077Z,1.13
2022-11-23T01:56:23.068Z,1.12
2022-11-23T01:57:23.054Z,1.13
2022-11-23T01:58:23.037Z,1.10
2022-11-23T01:59:23.018Z,1.05
2022-11-23T02:00:23.032Z,1.02
2022-11-23T02:01:23.065Z,1.02
2022-11-23T02:02:22.985Z,1.02
2022-11-23T02:03:22.970Z,1.01
2022-11-23T02:04:22.952Z,1.04
2022-11-23T02:05:22.945Z,1.02
2022-11-23T02:06:22.931Z,1.02
2022-11-23T02:07:22.953Z,0.98
2022-11-23T02:08:22.903Z,0.96
2022-11-23T02:09:22.889Z,0.96
2022-11-23T02:10:22.874Z,0.95
2022-11-23T02:11:22.863Z,0.92
2022-11-23T02:12:22.857Z,0.91
2022-11-23T02:13:22.836Z,0.86
2022-11-23T02:14:23.677Z,0.81
2022-11-23T02:15:22.821Z,0.86
2022-11-23T02:16:22.819Z,0.87
2022-11-23T02:17:22.783Z,0.92
2022-11-23T02:18:22.785Z,0.91
2022-11-23T02:19:22.763Z,0.88
2022-11-23T02:20:22.758Z,0.83
2022-11-23T02:21:22.732Z,0.80
2022-11-23T02:22:22.731Z,0.80
2022-11-23T02:23:22.718Z,0.76
2022-11-23T02:24:22.704Z,0.76
2022-11-23T02:25:22.683Z,0.70
2022-11-23T02:26:22.683Z,0.66
2022-11-23T02:27:22.653Z,0.65
2022-11-23T02:28:22.642Z,0.65
2022-11-23T02:29:22.628Z,0.65
2022-11-23T02:30:22.626Z,0.60
2022-11-23T02:31:22.601Z,0.59
2022-11-23T02:32:22.618Z,0.58
2022-11-23T02:33:22.583Z,0.60
2022-11-23T02:34:22.569Z,0.59
2022-11-23T02:35:22.551Z,0.59
2022-11-23T02:36:22.536Z,0.59
2022-11-23T02:37:22.525Z,0.55
2022-11-23T02:38:22.521Z,0.50
2022-11-23T02:39:22.504Z,0.49
2022-11-23T02:40:22.496Z,0.47
2022-11-23T02:41:22.487Z,0.47
2022-11-23T02:42:22.461Z,0.50
2022-11-23T02:43:22.455Z,0.55
2022-11-23T02:44:22.436Z,0.62
2022-11-23T02:45:22.415Z,0.60
2022-11-23T02:46:22.417Z,0.62
2022-11-23T02:47:22.469Z,0.62
2022-11-23T02:48:22.407Z,0.59
2022-11-23T02:49:22.378Z,0.60
2022-11-23T02:50:22.369Z,0.62
2022-11-23T02:51:22.342Z,0.60
2022-11-23T02:52:22.343Z,0.55
2022-11-23T02:53:22.327Z,0.55
2022-11-23T02:54:22.304Z,0.56
2022-11-23T02:55:22.301Z,0.59
2022-11-23T02:56:22.285Z,0.58
2022-11-23T02:57:22.272Z,0.59
2022-11-23T02:58:22.266Z,0.59
2022-11-23T02:59:22.238Z,0.63
2022-11-23T03:00:22.230Z,0.63
2022-11-23T03:01:22.275Z,0.63
2022-11-23T03:02:22.199Z,0.66
2022-11-23T03:03:22.189Z,0.68
2022-11-23T03:04:27.577Z,0.70
2022-11-23T03:05:22.161Z,0.70
2022-11-23T03:06:22.157Z,0.70
2022-11-23T03:07:22.182Z,0.70
2022-11-23T03:08:22.134Z,0.70
2022-11-23T03:09:22.141Z,0.76
2022-11-23T03:10:22.101Z,0.81
2022-11-23T03:11:22.092Z,0.88
2022-11-23T03:12:22.084Z,0.96
2022-11-23T03:13:22.065Z,0.98
2022-11-23T03:14:22.047Z,0.99
2022-11-23T03:15:22.031Z,1.05
2022-11-23T03:16:22.031Z,1.05
2022-11-23T03:17:22.001Z,1.02
2022-11-23T03:18:21.994Z,1.02
2022-11-23T03:19:21.979Z,1.02
2022-11-23T03:20:21.991Z,1.02
2022-11-23T03:21:21.952Z,0.98
2022-11-23T03:22:21.951Z,0.88
2022-11-23T03:23:21.937Z,0.84
2022-11-23T03:24:21.915Z,0.87
2022-11-23T03:25:21.910Z,0.86
2022-11-23T03:26:21.894Z,0.87
2022-11-23T03:27:21.876Z,0.91
2022-11-23T03:28:21.878Z,0.94
2022-11-23T03:29:21.859Z,0.92
2022-11-23T03:30:21.846Z,0.92
2022-11-23T03:31:21.840Z,0.92
2022-11-23T03:32:21.814Z,0.94
2022-11-23T03:33:21.801Z,0.95
2022-11-23T03:34:21.799Z,0.96
2022-11-23T03:35:21.780Z,0.98
2022-11-23T03:36:21.796Z,1.01
2022-11-23T03:37:21.754Z,1.06
2022-11-23T03:38:21.740Z,1.08
2022-11-23T03:39:21.731Z,1.12
2022-11-23T03:40:21.707Z,1.12
2022-11-23T03:41:21.702Z,1.06
2022-11-23T03:42:21.694Z,1.04
2022-11-23T03:43:21.677Z,1.05
2022-11-23T03:44:21.677Z,1.05
2022-11-23T03:45:21.647Z,1.10
2022-11-23T03:46:21.638Z,1.13
2022-11-23T03:47:21.625Z,1.16
2022-11-23T03:48:21.604Z,1.16
2022-11-23T03:49:21.596Z,1.17
2022-11-23T03:50:21.587Z,1.14
2022-11-23T03:51:21.565Z,1.17
2022-11-23T03:52:21.580Z,1.17
2022-11-23T03:53:21.540Z,1.19
2022-11-23T03:54:21.528Z,1.17
2022-11-23T03:55:21.514Z,1.17
2022-11-23T03:56:21.504Z,1.14
2022-11-23T03:57:21.492Z,1.17
2022-11-23T03:58:21.475Z,1.12
2022-11-23T03:59:21.470Z,1.10
2022-11-23T04:00:21.453Z,1.10
2022-11-23T04:01:21.499Z,1.08
2022-11-23T04:02:21.430Z,1.08
2022-11-23T04:03:21.421Z,1.06
2022-11-23T04:04:21.399Z,1.08
2022-11-23T04:05:21.393Z,1.08
2022-11-23T04:06:21.384Z,1.14
2022-11-23T04:07:21.422Z,1.19
2022-11-23T04:08:21.369Z,1.19
2022-11-23T04:09:21.347Z,1.20
2022-11-23T04:10:21.316Z,1.22
2022-11-23T04:11:21.314Z,1.26
2022-11-23T04:12:21.292Z,1.23
2022-11-23T04:13:21.285Z,1.23
2022-11-23T04:14:21.270Z,1.20
2022-11-23T04:15:21.267Z,1.22
2022-11-23T04:16:21.255Z,1.23
2022-11-23T04:17:21.244Z,1.24
2022-11-23T04:18:21.223Z,1.22
2022-11-23T04:19:21.211Z,1.19
2022-11-23T04:20:21.195Z,1.17
2022-11-23T04:21:21.175Z,1.17
2022-11-23T04:22:21.169Z,1.19
2022-11-23T04:23:21.150Z,1.20
2022-11-23T04:24:21.162Z,1.23
2022-11-23T04:25:21.123Z,1.28
2022-11-23T04:26:21.111Z,1.30
2022-11-23T04:27:21.101Z,1.30
2022-11-23T04:28:21.092Z,1.34
2022-11-23T04:29:21.084Z,1.38
2022-11-23T04:30:21.060Z,1.40
2022-11-23T04:31:21.050Z,1.37
2022-11-23T04:32:21.037Z,1.32
2022-11-23T04:33:21.026Z,1.26
2022-11-23T04:34:21.018Z,1.22
2022-11-23T04:35:21.002Z,1.20
2022-11-23T04:36:20.982Z,1.20
2022-11-23T04:37:20.971Z,1.17
2022-11-23T04:38:20.963Z,1.16
2022-11-23T04:39:20.951Z,1.17
2022-11-23T04:40:20.961Z,1.19
2022-11-23T04:41:20.924Z,1.20
2022-11-23T04:42:20.905Z,1.22
2022-11-23T04:43:20.893Z,1.24
2022-11-23T04:44:20.890Z,1.24
2022-11-23T04:45:20.876Z,1.30
2022-11-23T04:46:20.861Z,1.30
2022-11-23T04:47:20.847Z,1.30
2022-11-23T04:48:20.826Z,1.31
2022-11-23T04:49:20.821Z,1.31
2022-11-23T04:50:20.813Z,1.34
2022-11-23T04:51:20.800Z,1.35
2022-11-23T04:52:20.781Z,1.37
2022-11-23T04:53:20.773Z,1.40
2022-11-23T04:54:20.769Z,1.44
2022-11-23T04:55:20.734Z,1.48
2022-11-23T04:56:20.792Z,1.50
2022-11-23T04:57:20.709Z,1.50
2022-11-23T04:58:20.703Z,1.50
2022-11-23T04:59:20.696Z,1.49
2022-11-23T05:00:20.689Z,1.45
2022-11-23T05:01:20.706Z,1.45
2022-11-23T05:02:20.646Z,1.41
2022-11-23T05:03:20.646Z,1.38
2022-11-23T05:04:20.625Z,1.35
2022-11-23T05:05:20.609Z,1.34
2022-11-23T05:06:20.605Z,1.34
2022-11-23T05:07:20.678Z,1.35
2022-11-23T05:08:20.581Z,1.40
2022-11-23T05:09:20.566Z,1.41
2022-11-23T05:10:20.548Z,1.42
2022-11-23T05:11:20.533Z,1.42
2022-11-23T05:12:20.548Z,1.40
2022-11-23T05:13:20.500Z,1.41
2022-11-23T05:14:20.491Z,1.35
2022-11-23T05:15:20.481Z,1.35
2022-11-23T05:16:20.482Z,1.32
2022-11-23T05:17:20.455Z,1.32
2022-11-23T05:18:20.446Z,1.32
2022-11-23T05:19:20.436Z,1.31
2022-11-23T05:20:20.411Z,1.31
2022-11-23T05:21:20.404Z,1.34
2022-11-23T05:22:20.393Z,1.34
2022-11-23T05:23:20.388Z,1.34
2022-11-23T05:24:20.369Z,1.34
2022-11-23T05:25:20.350Z,1.37
2022-11-23T05:26:20.356Z,1.35
2022-11-23T05:27:20.333Z,1.37
2022-11-23T05:28:39.587Z,1.35
2022-11-23T05:29:21.332Z,1.37
2022-11-23T05:30:20.280Z,1.37
2022-11-23T05:31:20.268Z,1.38
2022-11-23T05:32:20.266Z,1.40
2022-11-23T05:33:20.245Z,1.40
2022-11-23T05:34:20.240Z,1.40
2022-11-23T05:35:20.226Z,1.41
2022-11-23T05:36:20.218Z,1.42
2022-11-23T05:37:20.197Z,1.40
2022-11-23T05:38:20.178Z,1.34
2022-11-23T05:39:20.165Z,1.32
2022-11-23T05:40:20.160Z,1.31
2022-11-23T05:41:20.154Z,1.34
2022-11-23T05:42:20.132Z,1.37
2022-11-23T05:43:20.128Z,1.37
2022-11-23T05:44:20.135Z,1.38
2022-11-23T05:45:20.103Z,1.37
2022-11-23T05:46:20.086Z,1.37
2022-11-23T05:47:20.075Z,1.37
2022-11-23T05:48:20.062Z,1.35
2022-11-23T05:49:20.044Z,1.37
2022-11-23T05:50:20.031Z,1.42
2022-11-23T05:51:20.014Z,1.44
2022-11-23T05:52:20.000Z,1.44
2022-11-23T05:53:19.984Z,1.45
2022-11-23T05:54:19.981Z,1.45
2022-11-23T05:55:19.968Z,1.44
2022-11-23T05:56:19.946Z,1.42
2022-11-23T05:57:19.942Z,1.40
2022-11-23T05:58:19.934Z,1.37
2022-11-23T05:59:19.907Z,1.35
2022-11-23T06:00:19.924Z,1.37
2022-11-23T06:01:19.881Z,1.37
2022-11-23T06:02:19.871Z,1.37
2022-11-23T06:03:19.868Z,1.38
2022-11-23T06:04:19.921Z,1.38
2022-11-23T06:05:19.826Z,1.41
2022-11-23T06:06:19.820Z,1.42
2022-11-23T06:07:19.877Z,1.44
2022-11-23T06:08:19.788Z,1.44
2022-11-23T06:09:19.791Z,1.44
2022-11-23T06:10:19.774Z,1.42
2022-11-23T06:11:19.755Z,1.44
2022-11-23T06:12:19.751Z,1.41
2022-11-23T06:13:19.730Z,1.38
2022-11-23T06:14:19.724Z,1.38
2022-11-23T06:15:19.710Z,1.37
2022-11-23T06:16:19.710Z,1.37
2022-11-23T06:17:19.672Z,1.37
2022-11-23T06:18:19.668Z,1.38
2022-11-23T06:19:19.647Z,1.38
2022-11-23T06:20:19.639Z,1.41
2022-11-23T06:21:19.622Z,1.44
2022-11-23T06:22:19.617Z,1.45
2022-11-23T06:23:19.595Z,1.48
2022-11-23T06:24:19.589Z,1.48
2022-11-23T06:25:19.575Z,1.50
2022-11-23T06:26:19.560Z,1.53
2022-11-23T06:27:19.556Z,1.55
2022-11-23T06:28:19.542Z,1.56
2022-11-23T06:29:19.527Z,1.58
2022-11-23T06:30:19.507Z,1.58
2022-11-23T06:31:19.494Z,1.60
2022-11-23T06:32:19.510Z,1.63
2022-11-23T06:33:19.466Z,1.67
2022-11-23T06:34:19.450Z,1.68
2022-11-23T06:35:19.452Z,1.71
2022-11-23T06:36:19.427Z,1.74
2022-11-23T06:37:19.426Z,1.77
2022-11-23T06:38:19.402Z,1.81
2022-11-23T06:39:19.392Z,1.80
2022-11-23T06:40:19.389Z,1.81
2022-11-23T06:41:19.376Z,1.87
2022-11-23T06:42:48.406Z,1.89
2022-11-23T06:43:20.369Z,1.95
2022-11-23T06:44:19.325Z,1.97
2022-11-23T06:45:19.311Z,1.95
2022-11-23T06:46:19.295Z,1.94
2022-11-23T06:47:24.563Z,1.95
2022-11-23T06:48:20.333Z,1.95
2022-11-23T06:49:19.267Z,1.97
2022-11-23T06:50:19.245Z,1.94
2022-11-23T06:51:19.243Z,1.92
2022-11-23T06:52:19.230Z,1.92
2022-11-23T06:53:19.207Z,1.92
2022-11-23T06:54:21.238Z,1.89
2022-11-23T06:55:19.180Z,1.89
2022-11-23T06:56:19.182Z,1.87
2022-11-23T06:57:19.156Z,1.85
2022-11-23T06:58:19.147Z,1.84
2022-11-23T06:59:19.129Z,1.81
2022-11-23T07:00:19.118Z,1.78
2022-11-23T07:01:19.196Z,1.78
2022-11-23T07:02:19.088Z,1.81
2022-11-23T07:03:19.144Z,1.85
2022-11-23T07:04:19.090Z,1.85
2022-11-23T07:05:19.046Z,1.87
2022-11-23T07:06:19.038Z,1.87
2022-11-23T07:07:19.109Z,1.89
2022-11-23T07:08:19.023Z,1.92
2022-11-23T07:09:19.007Z,1.94
2022-11-23T07:10:18.993Z,1.95
2022-11-23T07:11:18.984Z,1.95
2022-11-23T07:12:18.966Z,1.99
2022-11-23T07:13:18.956Z,2.02
2022-11-23T07:14:18.936Z,2.06
2022-11-23T07:15:18.922Z,2.07
2022-11-23T07:16:18.917Z,2.06
2022-11-23T07:17:18.906Z,2.07
2022-11-23T07:18:18.882Z,2.10
2022-11-23T07:19:18.875Z,2.11
2022-11-23T07:20:18.883Z,2.11
2022-11-23T07:21:18.845Z,2.15
2022-11-23T07:22:18.837Z,2.22
2022-11-23T07:23:18.815Z,2.24
2022-11-23T07:24:18.815Z,2.25
2022-11-23T07:25:18.794Z,2.31
2022-11-23T07:26:18.782Z,2.35
2022-11-23T07:27:18.775Z,2.38
2022-11-23T07:28:18.754Z,2.42
2022-11-23T07:29:18.743Z,2.42
2022-11-23T07:30:18.741Z,2.46
2022-11-23T07:31:18.718Z,2.47
2022-11-23T07:32:18.702Z,2.50
2022-11-23T07:33:18.697Z,2.53
2022-11-23T07:34:18.686Z,2.53
2022-11-23T07:35:18.672Z,2.54
2022-11-23T07:36:18.682Z,2.60
2022-11-23T07:37:18.658Z,2.60
2022-11-23T07:38:18.632Z,2.64
2022-11-23T07:39:18.612Z,2.67
2022-11-23T07:40:18.612Z,2.68
2022-11-23T07:41:18.590Z,2.72
2022-11-23T07:42:32.279Z,2.72
2022-11-23T07:43:19.594Z,2.74
2022-11-23T07:44:18.544Z,2.79
2022-11-23T07:45:18.531Z,2.83
2022-11-23T07:46:18.525Z,2.85
2022-11-23T07:47:18.508Z,2.89
2022-11-23T07:48:18.527Z,2.92
2022-11-23T07:49:18.492Z,2.97
2022-11-23T07:50:18.477Z,3.01
2022-11-23T07:51:18.464Z,3.05
2022-11-23T07:52:18.477Z,3.11
2022-11-23T07:53:18.425Z,3.13
2022-11-23T07:54:23.424Z,3.16
2022-11-23T07:55:18.406Z,3.18
2022-11-23T07:56:18.390Z,3.21
2022-11-23T07:57:18.378Z,3.22
2022-11-23T07:58:18.369Z,3.22
2022-11-23T07:59:18.357Z,3.25
2022-11-23T08:00:18.341Z,3.28
2022-11-23T08:01:18.344Z,3.32
2022-11-23T08:02:18.362Z,3.40
2022-11-23T08:03:33.886Z,3.42
2022-11-23T08:04:19.327Z,3.45
2022-11-23T08:05:18.282Z,3.45
2022-11-23T08:06:18.292Z,3.48
2022-11-23T08:07:18.311Z,3.56
2022-11-23T08:08:18.274Z,3.66
2022-11-23T08:09:18.228Z,3.78
2022-11-23T08:10:18.213Z,3.84
2022-11-23T08:11:18.204Z,3.91
2022-11-23T08:12:18.175Z,3.99
2022-11-23T08:13:18.170Z,4.05
2022-11-23T08:14:18.157Z,4.06
2022-11-23T08:15:18.144Z,4.10
2022-11-23T08:16:18.126Z,4.06
2022-11-23T08:17:18.118Z,4.06
2022-11-23T08:18:18.107Z,4.16
2022-11-23T08:19:18.098Z,4.49
2022-11-23T08:20:18.081Z,4.66
2022-11-23T08:21:18.075Z,4.68
2022-11-23T08:22:18.050Z,4.74
2022-11-23T08:23:18.055Z,4.93
2022-11-23T08:24:18.054Z,5.18
2022-11-23T08:25:18.009Z,5.35
2022-11-23T08:26:18.002Z,5.26
2022-11-23T08:27:17.992Z,5.21
2022-11-23T08:28:17.972Z,5.33
2022-11-23T08:29:17.960Z,5.51
2022-11-23T08:30:17.963Z,5.71
2022-11-23T08:31:17.933Z,5.51
2022-11-23T08:32:17.933Z,5.35
2022-11-23T08:33:17.911Z,5.29
2022-11-23T08:34:17.904Z,5.57
2022-11-23T08:35:17.893Z,5.68
2022-11-23T08:36:17.868Z,5.50
2022-11-23T08:37:17.859Z,5.33
2022-11-23T08:38:17.853Z,5.25
2022-11-23T08:39:17.829Z,5.11
2022-11-23T08:40:23.542Z,4.99
2022-11-23T08:41:18.843Z,4.89
2022-11-23T08:42:17.796Z,4.82
2022-11-23T08:43:17.792Z,4.84
2022-11-23T08:44:17.768Z,4.90
2022-11-23T08:45:17.767Z,5.30
2022-11-23T08:46:17.748Z,5.94
2022-11-23T08:47:17.731Z,5.94
2022-11-23T08:48:17.725Z,5.91
2022-11-23T08:49:17.700Z,6.16
2022-11-23T08:50:17.686Z,6.46
2022-11-23T08:51:17.675Z,6.84
2022-11-23T08:52:17.682Z,6.70
2022-11-23T08:53:17.667Z,7.14
2022-11-23T08:54:17.632Z,8.26
2022-11-23T08:55:17.626Z,9.11
2022-11-23T08:56:17.641Z,9.47
2022-11-23T08:57:17.601Z,9.34
2022-11-23T08:58:17.594Z,9.11
2022-11-23T08:59:17.579Z,8.92
2022-11-23T09:00:17.567Z,8.46
2022-11-23T09:01:17.669Z,8.13
2022-11-23T09:02:17.530Z,7.82
2022-11-23T09:03:17.525Z,7.51
2022-11-23T09:04:20.684Z,7.28
2022-11-23T09:05:17.495Z,7.95
2022-11-23T09:06:17.507Z,7.83
2022-11-23T09:07:17.565Z,7.57
2022-11-23T09:08:17.470Z,7.32
2022-11-23T09:09:17.451Z,7.05
2022-11-23T09:10:19.144Z,6.88
2022-11-23T09:11:17.418Z,6.77
2022-11-23T09:12:17.437Z,6.63
2022-11-23T09:13:17.395Z,6.49
2022-11-23T09:14:17.398Z,6.51
2022-11-23T09:15:17.370Z,6.59
2022-11-23T09:16:17.361Z,6.64
2022-11-23T09:17:17.365Z,6.74
2022-11-23T09:18:17.331Z,6.67
2022-11-23T09:19:17.318Z,6.59
2022-11-23T09:20:17.325Z,6.44
2022-11-23T09:21:17.300Z,6.31
2022-11-23T09:22:17.302Z,6.28
2022-11-23T09:23:17.274Z,6.28
2022-11-23T09:24:17.353Z,6.45
2022-11-23T09:25:17.253Z,6.95
2022-11-23T09:26:17.231Z,7.28
2022-11-23T09:27:17.226Z,7.38
2022-11-23T09:28:17.233Z,7.24
2022-11-23T09:29:17.211Z,7.14
2022-11-23T09:30:17.190Z,6.87
2022-11-23T09:31:17.172Z,6.78
2022-11-23T09:32:17.159Z,6.64
2022-11-23T09:33:17.150Z,6.48
2022-11-23T09:34:17.147Z,6.28
2022-11-23T09:35:17.128Z,6.12
2022-11-23T09:36:17.108Z,6.04
2022-11-23T09:37:17.103Z,5.94
2022-11-23T09:38:17.110Z,5.84
2022-11-23T09:39:17.067Z,5.76
2022-11-23T09:40:17.066Z,5.71
2022-11-23T09:41:17.041Z,5.64
2022-11-23T09:42:17.032Z,5.64
2022-11-23T09:43:17.023Z,5.65
2022-11-23T09:44:17.037Z,5.66
2022-11-23T09:45:17.005Z,5.73
2022-11-23T09:46:16.996Z,5.76
2022-11-23T09:47:16.962Z,5.72
2022-11-23T09:48:16.958Z,5.75
2022-11-23T09:49:16.944Z,5.93
2022-11-23T09:50:16.925Z,5.98
2022-11-23T09:51:16.924Z,5.91
2022-11-23T09:52:16.918Z,6.16
2022-11-23T09:53:16.893Z,6.45
2022-11-23T09:54:16.876Z,6.93
2022-11-23T09:55:16.871Z,7.43
2022-11-23T09:56:16.861Z,7.61
2022-11-23T09:57:16.845Z,7.56
2022-11-23T09:58:16.846Z,7.48
2022-11-23T09:59:16.852Z,7.38
2022-11-23T10:00:16.812Z,7.29
2022-11-23T10:01:16.862Z,7.39
2022-11-23T10:02:16.775Z,7.48
2022-11-23T10:03:16.762Z,7.56
2022-11-23T10:04:16.755Z,7.47
2022-11-23T10:05:16.737Z,7.36
2022-11-23T10:06:16.710Z,7.15
2022-11-23T10:07:16.869Z,7.10
2022-11-23T10:08:16.700Z,7.11
2022-11-23T10:09:16.698Z,7.11
2022-11-23T10:10:16.658Z,7.13
2022-11-23T10:11:16.649Z,7.07
2022-11-23T10:12:16.645Z,6.96
2022-11-23T10:13:16.629Z,6.82
2022-11-23T10:14:16.609Z,6.85
2022-11-23T10:15:16.605Z,6.85
2022-11-23T10:16:16.611Z,6.88
2022-11-23T10:17:16.567Z,6.82
2022-11-23T10:18:16.562Z,6.84
2022-11-23T10:19:16.551Z,7.00
2022-11-23T10:20:16.540Z,7.24
2022-11-23T10:21:16.514Z,7.56
2022-11-23T10:22:16.516Z,7.72
2022-11-23T10:23:16.495Z,7.82
2022-11-23T10:24:16.478Z,8.03
2022-11-23T10:25:16.464Z,8.26
2022-11-23T10:26:16.451Z,8.37
2022-11-23T10:27:16.455Z,8.55
2022-11-23T10:28:16.422Z,8.71
2022-11-23T10:29:16.424Z,8.95
2022-11-23T10:30:16.402Z,9.08
2022-11-23T10:31:16.390Z,9.25
2022-11-23T10:32:16.404Z,9.55
2022-11-23T10:33:16.367Z,9.58
2022-11-23T10:34:16.341Z,9.47
2022-11-23T10:35:16.337Z,9.06
2022-11-23T10:36:16.341Z,8.88
2022-11-23T10:37:16.325Z,8.76
2022-11-23T10:38:19.209Z,8.89
2022-11-23T10:39:16.291Z,9.06
2022-11-23T10:40:16.268Z,9.19
2022-11-23T10:41:16.258Z,9.16
2022-11-23T10:42:16.250Z,8.94
2022-11-23T10:43:16.242Z,8.97
2022-11-23T10:44:16.228Z,8.66
2022-11-23T10:45:16.203Z,8.28
2022-11-23T10:46:16.191Z,8.48
2022-11-23T10:47:16.194Z,8.63
2022-11-23T10:48:16.196Z,8.34
2022-11-23T10:49:16.171Z,8.03
2022-11-23T10:50:16.192Z,8.13
2022-11-23T10:51:16.125Z,8.08
2022-11-23T10:52:16.144Z,7.90
2022-11-23T10:53:16.110Z,7.88
2022-11-23T10:54:16.098Z,7.90
2022-11-23T10:55:16.084Z,7.88
2022-11-23T10:56:16.067Z,7.88
2022-11-23T10:57:16.066Z,7.90
2022-11-23T10:58:16.038Z,7.94
2022-11-23T10:59:16.037Z,7.93
2022-11-23T11:00:16.086Z,7.94
2022-11-23T11:01:16.067Z,7.97
2022-11-23T11:02:15.994Z,8.03
2022-11-23T11:03:15.982Z,8.03
2022-11-23T11:04:15.983Z,8.05
2022-11-23T11:05:15.953Z,7.85
2022-11-23T11:06:15.938Z,7.73
2022-11-23T11:07:15.996Z,7.57
2022-11-23T11:08:15.920Z,7.54
2022-11-23T11:09:15.907Z,7.57
2022-11-23T11:10:16.046Z,7.57
2022-11-23T11:11:15.877Z,7.45
2022-11-23T11:12:15.872Z,7.24
2022-11-23T11:13:15.844Z,7.10
2022-11-23T11:14:15.833Z,6.85
2022-11-23T11:15:15.830Z,6.89
2022-11-23T11:16:15.810Z,6.92
2022-11-23T11:17:15.805Z,6.99
2022-11-23T11:18:15.785Z,7.11
2022-11-23T11:19:15.775Z,7.23
2022-11-23T11:20:15.796Z,7.24
2022-11-23T11:21:15.751Z,7.33
2022-11-23T11:22:15.729Z,7.32
2022-11-23T11:23:15.724Z,7.39
2022-11-23T11:24:15.720Z,7.45
2022-11-23T11:25:15.693Z,7.40
2022-11-23T11:26:15.687Z,7.45
2022-11-23T11:27:15.671Z,7.45
2022-11-23T11:28:15.661Z,7.54
2022-11-23T11:29:15.645Z,7.60
2022-11-23T11:30:15.631Z,7.54
2022-11-23T11:31:15.614Z,7.48
2022-11-23T11:32:15.603Z,7.54
2022-11-23T11:33:15.606Z,7.47
2022-11-23T11:34:15.588Z,7.43
2022-11-23T11:35:20.622Z,7.39
2022-11-23T11:36:15.573Z,7.40
2022-11-23T11:37:15.543Z,7.38
2022-11-23T11:38:15.545Z,7.36
2022-11-23T11:39:18.771Z,7.42
2022-11-23T11:40:15.497Z,7.45
2022-11-23T11:41:15.482Z,7.47
2022-11-23T11:42:15.479Z,7.47
2022-11-23T11:43:15.466Z,7.45
2022-11-23T11:44:15.453Z,7.40
2022-11-23T11:45:15.433Z,7.38
2022-11-23T11:46:31.087Z,7.31
2022-11-23T11:47:16.450Z,7.28
2022-11-23T11:48:15.407Z,7.21
2022-11-23T11:49:15.384Z,7.17
2022-11-23T11:50:15.377Z,7.17
2022-11-23T11:51:15.371Z,7.21
2022-11-23T11:52:15.386Z,7.23
2022-11-23T11:53:15.332Z,7.20
2022-11-23T11:54:15.320Z,7.21
2022-11-23T11:55:15.313Z,7.20
2022-11-23T11:56:15.301Z,7.18
2022-11-23T11:57:15.311Z,7.18
2022-11-23T11:58:15.264Z,7.18
2022-11-23T11:59:15.295Z,7.20
2022-11-23T12:00:15.248Z,7.23
2022-11-23T12:01:15.223Z,7.23
2022-11-23T12:02:15.225Z,7.29
2022-11-23T12:03:15.260Z,7.33
2022-11-23T12:04:15.196Z,7.35
2022-11-23T12:05:15.176Z,7.38
2022-11-23T12:06:15.164Z,7.36
2022-11-23T12:07:15.188Z,7.33
2022-11-23T12:08:15.178Z,7.28
2022-11-23T12:09:15.131Z,7.21
2022-11-23T12:10:15.173Z,7.20
2022-11-23T12:11:15.102Z,7.21
2022-11-23T12:12:15.094Z,7.25
2022-11-23T12:13:15.075Z,7.28
2022-11-23T12:14:15.067Z,7.31
2022-11-23T12:15:41.044Z,7.33
2022-11-23T12:16:16.088Z,7.31
2022-11-23T12:17:32.469Z,7.25
2022-11-23T12:18:16.059Z,7.25
2022-11-23T12:19:14.996Z,7.29
2022-11-23T12:20:14.981Z,7.32
2022-11-23T12:21:15.020Z,7.31
2022-11-23T12:22:15.021Z,7.32
2022-11-23T12:23:14.958Z,7.33
2022-11-23T12:24:14.964Z,7.28
2022-11-23T12:25:14.920Z,7.25
2022-11-23T12:26:14.910Z,7.28
2022-11-23T12:27:14.899Z,7.29
2022-11-23T12:28:14.887Z,7.31
2022-11-23T12:29:14.880Z,7.33
2022-11-23T12:30:14.867Z,7.36
2022-11-23T12:31:14.839Z,7.35
2022-11-23T12:32:14.830Z,7.33
2022-11-23T12:33:14.819Z,7.33
2022-11-23T12:34:14.806Z,7.32
2022-11-23T12:35:14.797Z,7.29
2022-11-23T12:36:16.718Z,7.28
2022-11-23T12:37:14.774Z,7.24
2022-11-23T12:38:14.754Z,7.23
2022-11-23T12:39:14.759Z,7.23
2022-11-23T12:40:14.759Z,7.21
2022-11-23T12:41:14.716Z,7.18
2022-11-23T12:42:14.703Z,7.13
2022-11-23T12:43:14.700Z,7.07
2022-11-23T12:44:14.684Z,7.11
2022-11-23T12:45:14.665Z,7.11
2022-11-23T12:46:14.655Z,7.10
2022-11-23T12:47:14.651Z,7.07
2022-11-23T12:48:14.624Z,7.05
2022-11-23T12:49:14.612Z,7.11
2022-11-23T12:50:14.599Z,7.14
2022-11-23T12:51:14.586Z,7.15
2022-11-23T12:52:14.584Z,7.18
2022-11-23T12:53:14.688Z,7.17
2022-11-23T12:54:14.645Z,7.20
2022-11-23T12:55:19.458Z,7.21
2022-11-23T12:56:14.559Z,7.24
2022-11-23T12:57:14.553Z,7.18
2022-11-23T12:58:14.504Z,7.18
2022-11-23T12:59:14.483Z,7.21
2022-11-23T13:00:14.473Z,7.23
2022-11-23T13:01:14.528Z,7.23
2022-11-23T13:02:14.478Z,7.24
2022-11-23T13:03:14.432Z,7.29
2022-11-23T13:04:14.427Z,7.33
2022-11-23T13:05:14.408Z,7.29
2022-11-23T13:06:14.404Z,7.25
2022-11-23T13:07:29.370Z,7.32
2022-11-23T13:08:15.477Z,7.36
2022-11-23T13:09:14.367Z,7.40
2022-11-23T13:10:14.344Z,7.45
2022-11-23T13:11:14.354Z,7.45
2022-11-23T13:12:14.384Z,7.42
2022-11-23T13:13:16.216Z,7.24
2022-11-23T13:14:14.294Z,7.21
2022-11-23T13:15:14.289Z,7.24
2022-11-23T13:16:14.468Z,7.28
2022-11-23T13:17:14.354Z,7.29
2022-11-23T13:18:14.247Z,7.24